Terminal Aerodrome Forecast
Issued by NWS

Home | Current Version | Previous Version | Graphics & Text | Print | Product List | Glossary On
Versions: 1 2 3 4 5 6 7 8 9 10 11 12 13 14
000
FTUS43 KMPX 151728
TAFRNH
TAF
KRNH 151728Z 1518/1618 29010KT P6SM FEW035
     FM152200 26009KT P6SM BKN070
     FM160400 24003KT P6SM SKC
     FM161500 22006KT P6SM SCT250=

USA.gov is the U.S. government's official web portal to all federal, state and local government web resources and services.